Time;durP1;ratioP1;P1;durP2;ratioP2;P2;SDS_P1;SDS_P2;PMS_P1;PMS_P2;Temp;Humidity;BMP_temperature;BMP_pressure;BME280_temperature;BME280_humidity;BME280_pressure;Samples;Min_cycle;Max_cycle;Signal;HPM_P1;HPM_P2
2022/04/21 00:01:03;;;;;;;1.02;0.90;;;12.20;99.90;;;;;;4955688;29;20027;-85
2022/04/21 00:03:29;;;;;;;1.25;0.98;;;12.20;99.90;;;;;;4955532;28;20031;-78
2022/04/21 00:05:56;;;;;;;0.60;0.60;;;12.20;99.90;;;;;;4956780;28;20034;-78
2022/04/21 00:08:22;;;;;;;0.47;0.47;;;12.20;99.90;;;;;;4956007;28;20117;-85
2022/04/21 00:10:48;;;;;;;7.15;0.65;;;12.20;99.90;;;;;;4956294;29;20509;-79
2022/04/21 00:13:15;;;;;;;1.73;0.98;;;12.20;99.90;;;;;;4955415;28;20031;-78
2022/04/21 00:15:42;;;;;;;0.20;0.20;;;12.20;99.90;;;;;;4957001;28;20082;-79
2022/04/21 00:18:08;;;;;;;0.20;0.20;;;12.20;99.90;;;;;;4956288;28;20027;-85
2022/04/21 00:20:34;;;;;;;1.13;0.55;;;12.20;99.90;;;;;;4956076;28;20030;-85
2022/04/21 00:25:47;;;;;;;0.60;0.60;;;12.00;99.90;;;;;;4956390;28;20026;-85
2022/04/21 00:28:14;;;;;;;6.07;1.40;;;12.00;99.90;;;;;;4956603;28;20034;-78
2022/04/21 00:30:40;;;;;;;2.83;1.50;;;11.90;99.90;;;;;;4971171;28;20037;-79
2022/04/21 00:33:06;;;;;;;0.70;0.70;;;11.80;99.90;;;;;;4956798;28;20027;-78
2022/04/21 00:35:33;;;;;;;1.02;0.57;;;11.70;99.90;;;;;;4954900;28;20031;-79
2022/04/21 00:37:59;;;;;;;0.98;0.90;;;11.70;99.90;;;;;;4956263;28;20028;-79
2022/04/21 00:40:29;;;;;;;0.30;0.30;;;11.60;99.90;;;;;;4965322;28;20074;-78
2022/04/21 00:42:57;;;;;;;1.60;1.27;;;11.50;99.90;;;;;;4995038;28;20030;-79
2022/04/21 00:45:24;;;;;;;0.52;0.40;;;11.40;99.90;;;;;;4994326;28;20034;-86
2022/04/21 00:47:53;;;;;;;2.05;1.95;;;11.40;99.90;;;;;;4995502;28;20093;-86
2022/04/21 00:50:23;;;;;;;6.63;0.93;;;11.30;99.90;;;;;;4977745;28;20030;-85
2022/04/21 00:52:50;;;;;;;0.82;0.82;;;11.30;99.90;;;;;;4977189;28;20030;-78
2022/04/21 00:55:15;;;;;;;3.40;1.60;;;11.20;99.90;;;;;;4994204;28;20517;-85
2022/04/21 00:57:43;;;;;;;2.97;1.17;;;11.20;99.90;;;;;;4994425;28;20026;-78
2022/04/21 01:00:19;;;;;;;1.17;0.73;;;11.20;99.90;;;;;;4993281;28;20030;-79
2022/04/21 01:02:46;;;;;;;3.33;1.08;;;11.20;99.90;;;;;;4977289;28;20019;-79
2022/04/21 01:05:33;;;;;;;2.60;1.65;;;11.20;99.90;;;;;;4994229;28;20029;-79
2022/04/21 01:08:09;;;;;;;0.10;0.10;;;11.20;99.90;;;;;;4977147;28;20030;-79
2022/04/21 01:10:37;;;;;;;3.53;1.17;;;11.10;99.90;;;;;;4994432;28;20026;-79
2022/04/21 01:13:06;;;;;;;1.08;0.47;;;11.10;99.90;;;;;;4976597;28;20026;-84
2022/04/21 01:15:33;;;;;;;1.20;0.55;;;11.10;99.90;;;;;;4994086;28;20034;-78
2022/04/21 01:17:59;;;;;;;1.05;1.05;;;11.10;99.90;;;;;;4994449;28;20077;-84
2022/04/21 01:20:26;;;;;;;12.60;0.52;;;11.10;99.90;;;;;;4973148;28;20027;-86
2022/04/21 01:22:54;;;;;;;1.65;1.55;;;11.10;99.90;;;;;;4973485;28;20483;-79
2022/04/21 01:25:22;;;;;;;1.17;1.08;;;11.10;99.90;;;;;;4972746;28;20629;-86
2022/04/21 01:27:55;;;;;;;4.35;1.10;;;11.10;99.90;;;;;;4973629;28;20054;-79
2022/04/21 01:30:21;;;;;;;0.20;0.20;;;11.10;99.90;;;;;;4957098;28;20057;-78
2022/04/21 01:32:49;;;;;;;0.45;0.45;;;11.10;99.90;;;;;;4957679;28;20035;-85
2022/04/21 01:35:15;;;;;;;0.35;0.35;;;11.10;99.90;;;;;;4974438;28;20026;-78
2022/04/21 01:43:15;;;;;;;3.28;1.63;;;11.00;99.90;;;;;;4994108;28;20081;-79
2022/04/21 01:45:43;;;;;;;1.98;0.60;;;11.00;99.90;;;;;;4994520;28;20018;-78
2022/04/21 01:48:09;;;;;;;3.65;1.60;;;11.00;99.90;;;;;;4992955;28;20026;-78
2022/04/21 01:50:35;;;;;;;0.08;0.08;;;11.00;99.90;;;;;;4993917;28;20029;-78
2022/04/21 01:53:02;;;;;;;0.35;0.35;;;10.90;99.90;;;;;;4993434;28;20445;-85
2022/04/21 01:55:28;;;;;;;1.42;1.33;;;10.90;99.90;;;;;;4992091;28;20022;-78
2022/04/21 01:57:54;;;;;;;0.55;0.50;;;10.90;99.90;;;;;;4975914;28;20156;-78
2022/04/21 02:00:22;;;;;;;1.35;0.73;;;10.90;99.90;;;;;;4992474;28;20070;-86
2022/04/21 02:02:49;;;;;;;0.90;0.85;;;10.90;99.90;;;;;;4960313;28;20030;-83
2022/04/21 02:05:16;;;;;;;2.42;1.65;;;10.90;99.90;;;;;;4992587;28;20010;-79
2022/04/21 02:07:44;;;;;;;1.02;0.82;;;10.90;99.90;;;;;;4976466;28;20057;-79
2022/04/21 02:10:14;;;;;;;0.55;0.50;;;10.90;99.90;;;;;;4993365;28;20027;-78
2022/04/21 02:12:51;;;;;;;1.95;1.33;;;10.90;99.90;;;;;;4993839;28;20022;-86
2022/04/21 02:15:18;;;;;;;0.52;0.40;;;10.80;99.90;;;;;;4992212;28;20397;-81
2022/04/21 02:17:45;;;;;;;4.57;1.40;;;10.70;99.90;;;;;;4993556;28;20501;-85
2022/04/21 02:20:15;;;;;;;1.73;1.05;;;10.70;99.90;;;;;;4993292;28;20010;-86
2022/04/21 02:22:42;;;;;;;2.10;1.13;;;10.70;99.90;;;;;;4976505;28;20026;-78
2022/04/21 02:25:10;;;;;;;0.30;0.30;;;10.60;99.90;;;;;;4993642;28;20026;-79
2022/04/21 02:27:41;;;;;;;1.85;0.50;;;10.60;99.90;;;;;;4994000;28;20030;-85
2022/04/21 02:30:09;;;;;;;0.55;0.55;;;10.60;99.90;;;;;;4992111;28;20037;-85
2022/04/21 02:32:36;;;;;;;3.60;1.38;;;10.60;99.90;;;;;;4993597;28;20506;-79
2022/04/21 02:35:04;;;;;;;0.25;0.13;;;10.60;99.90;;;;;;4993557;28;20027;-85
2022/04/21 02:37:49;;;;;;;0.95;0.73;;;10.70;99.90;;;;;;4994593;28;20065;-85
2022/04/21 02:40:16;;;;;;;0.50;0.50;;;10.70;99.90;;;;;;4995467;28;20050;-78
2022/04/21 02:42:42;;;;;;;1.20;0.47;;;10.70;99.90;;;;;;4997338;28;20535;-86
2022/04/21 02:45:11;;;;;;;1.15;0.75;;;10.60;99.90;;;;;;4997422;28;20569;-78
2022/04/21 02:47:39;;;;;;;0.43;0.43;;;10.60;99.90;;;;;;4997558;28;20027;-78
2022/04/21 02:50:07;;;;;;;0.82;0.60;;;10.50;99.90;;;;;;4997706;28;20458;-79
2022/04/21 02:52:37;;;;;;;1.08;1.08;;;10.60;99.90;;;;;;4997113;28;20437;-78
2022/04/21 02:57:51;;;;;;;0.75;0.75;;;10.40;99.90;;;;;;4996902;28;20058;-78
2022/04/21 03:00:17;;;;;;;1.08;1.05;;;10.40;99.90;;;;;;4979594;28;20027;-78
2022/04/21 03:02:43;;;;;;;0.20;0.20;;;10.30;99.90;;;;;;4995752;28;20440;-86
2022/04/21 03:05:11;;;;;;;2.35;0.82;;;10.20;99.90;;;;;;4979130;28;20054;-78
2022/04/21 03:07:38;;;;;;;1.05;1.05;;;10.20;99.90;;;;;;4995611;28;20023;-78
2022/04/21 03:10:06;;;;;;;0.30;0.30;;;10.10;99.90;;;;;;4996736;28;20026;-78
2022/04/21 03:12:32;;;;;;;2.92;1.20;;;10.10;99.90;;;;;;4979752;28;20136;-78
2022/04/21 03:14:58;;;;;;;1.02;0.93;;;10.00;99.90;;;;;;4996223;28;20070;-86
2022/04/21 03:17:25;;;;;;;0.43;0.43;;;9.90;99.90;;;;;;4995018;28;20026;-85
2022/04/21 03:19:52;;;;;;;4.05;2.15;;;9.90;99.90;;;;;;4994776;28;20023;-78
2022/04/21 03:25:06;;;;;;;0.35;0.30;;;9.80;99.90;;;;;;4996626;28;20026;-78
2022/04/21 03:27:34;;;;;;;0.65;0.47;;;9.80;99.90;;;;;;4996653;28;20026;-78
2022/04/21 03:30:01;;;;;;;0.57;0.57;;;9.70;99.90;;;;;;4996129;28;20030;-85
2022/04/21 03:32:28;;;;;;;0.10;0.10;;;9.60;99.90;;;;;;4996507;28;20077;-85
2022/04/21 03:34:54;;;;;;;0.20;0.20;;;9.60;99.90;;;;;;4994801;28;20402;-80
2022/04/21 03:37:21;;;;;;;0.32;0.32;;;9.50;99.90;;;;;;4996346;28;20026;-78
2022/04/21 03:39:47;;;;;;;2.35;1.63;;;9.40;99.90;;;;;;4978867;28;20038;-78
2022/04/21 03:42:34;;;;;;;1.65;1.17;;;9.50;99.90;;;;;;4996092;28;20560;-86
2022/04/21 03:45:00;;;;;;;0.75;0.75;;;9.60;99.90;;;;;;4995075;28;20089;-86
2022/04/21 03:47:26;;;;;;;0.90;0.82;;;9.60;99.90;;;;;;4979146;28;20038;-78
2022/04/21 03:49:53;;;;;;;0.35;0.35;;;9.60;99.90;;;;;;4976873;28;20120;-78
2022/04/21 03:52:19;;;;;;;0.55;0.55;;;9.60;99.90;;;;;;4995017;28;20137;-86
2022/04/21 03:54:45;;;;;;;0.85;0.85;;;9.50;99.90;;;;;;4994887;28;20042;-85
2022/04/21 03:57:12;;;;;;;2.58;0.93;;;9.60;99.90;;;;;;4995554;28;20030;-78
2022/04/21 03:59:38;;;;;;;0.63;0.63;;;9.60;99.90;;;;;;4995923;28;20034;-78
2022/04/21 04:02:05;;;;;;;4.60;0.82;;;9.50;99.90;;;;;;4996173;28;20375;-79
2022/04/21 04:04:33;;;;;;;1.55;1.45;;;9.40;99.90;;;;;;4978023;28;20078;-78
2022/04/21 04:12:34;;;;;;;1.13;0.80;;;9.50;99.90;;;;;;4995906;28;20026;-78
2022/04/21 04:15:02;;;;;;;0.40;0.40;;;9.50;99.90;;;;;;4994810;28;20026;-81
2022/04/21 04:17:28;;;;;;;1.25;0.65;;;9.40;99.90;;;;;;4979290;28;20409;-87
2022/04/21 04:19:55;;;;;;;4.03;1.13;;;9.40;99.90;;;;;;4961329;28;20026;-78
2022/04/21 04:22:21;;;;;;;0.20;0.20;;;9.40;99.90;;;;;;4994158;28;20057;-86
2022/04/21 04:24:50;;;;;;;3.55;0.57;;;9.30;99.90;;;;;;4977131;28;20066;-78
2022/04/21 04:27:17;;;;;;;0.30;0.30;;;9.30;99.90;;;;;;4977622;28;20030;-86
2022/04/21 04:29:44;;;;;;;0.88;0.88;;;9.30;99.90;;;;;;4995531;28;20060;-85
2022/04/21 04:32:10;;;;;;;0.00;0.00;;;9.30;99.90;;;;;;4995539;28;20437;-86
2022/04/21 04:34:36;;;;;;;1.55;1.05;;;9.30;99.90;;;;;;4993798;28;20029;-78
2022/04/21 04:37:03;;;;;;;2.08;0.57;;;9.30;99.90;;;;;;4995274;28;20513;-79
2022/04/21 04:39:29;;;;;;;1.92;0.75;;;9.30;99.90;;;;;;4977640;28;20026;-78
2022/04/21 04:44:41;;;;;;;1.88;1.77;;;9.30;99.90;;;;;;4994785;28;20477;-85
2022/04/21 04:47:07;;;;;;;0.57;0.57;;;9.20;99.90;;;;;;4993521;28;20034;-85
2022/04/21 04:49:33;;;;;;;0.95;0.68;;;9.20;99.90;;;;;;4994535;28;20030;-85
2022/04/21 04:51:59;;;;;;;3.67;1.30;;;9.10;99.90;;;;;;5001146;28;20030;-78
2022/04/21 04:54:25;;;;;;;0.75;0.75;;;9.00;99.90;;;;;;4996711;28;20085;-78
2022/04/21 04:56:51;;;;;;;0.52;0.52;;;9.00;99.90;;;;;;4976778;28;20401;-78
2022/04/21 04:59:17;;;;;;;2.85;0.82;;;8.90;99.90;;;;;;4992503;28;20031;-78
2022/04/21 05:01:45;;;;;;;1.80;0.90;;;8.90;99.90;;;;;;4977002;28;20046;-85
2022/04/21 05:04:15;;;;;;;2.28;0.90;;;8.90;99.90;;;;;;4976547;28;20022;-85
2022/04/21 05:06:50;;;;;;;2.20;0.88;;;8.90;99.90;;;;;;4982715;28;20030;-78
2022/04/21 05:09:17;;;;;;;0.32;0.32;;;8.90;99.90;;;;;;4994093;28;20109;-78
2022/04/21 05:11:50;;;;;;;0.80;0.80;;;8.90;99.90;;;;;;4993402;28;20569;-78
2022/04/21 05:14:18;;;;;;;1.83;1.10;;;8.90;99.90;;;;;;4994528;28;20030;-85
2022/04/21 05:16:44;;;;;;;0.93;0.68;;;8.90;99.90;;;;;;4994311;28;20497;-78
2022/04/21 05:19:13;;;;;;;0.38;0.38;;;8.90;99.90;;;;;;4990973;28;20022;-86
2022/04/21 05:21:42;;;;;;;0.22;0.22;;;8.90;99.90;;;;;;4973792;28;20074;-85
2022/04/21 05:24:10;;;;;;;4.95;1.75;;;8.90;99.90;;;;;;4975519;28;20018;-85
2022/04/21 05:26:37;;;;;;;0.15;0.15;;;9.00;99.90;;;;;;4973327;28;20061;-86
2022/04/21 05:32:02;;;;;;;0.52;0.52;;;9.00;99.90;;;;;;4960368;28;20031;-78
2022/04/21 05:34:30;;;;;;;1.98;1.13;;;9.10;99.90;;;;;;4973613;28;20521;-78
2022/04/21 05:36:59;;;;;;;0.22;0.22;;;9.10;99.90;;;;;;4989900;28;20077;-77
2022/04/21 05:39:28;;;;;;;2.58;1.02;;;9.10;99.90;;;;;;4992648;28;20434;-85
2022/04/21 05:41:58;;;;;;;1.05;0.98;;;9.10;99.90;;;;;;4993531;28;20050;-78
2022/04/21 05:44:25;;;;;;;7.50;2.20;;;9.20;99.90;;;;;;4994095;28;20033;-78
2022/04/21 05:46:54;;;;;;;3.83;1.65;;;9.30;99.90;;;;;;4993932;28;20022;-78
2022/04/21 05:49:24;;;;;;;1.90;1.25;;;9.40;99.90;;;;;;4993323;28;20034;-84
2022/04/21 05:51:54;;;;;;;1.42;1.33;;;9.60;99.90;;;;;;4976151;28;20100;-83
2022/04/21 05:54:23;;;;;;;1.38;0.63;;;9.80;99.90;;;;;;4981072;28;20079;-77
2022/04/21 05:56:53;;;;;;;4.22;1.13;;;10.00;99.90;;;;;;4973592;28;20027;-78
2022/04/21 05:59:19;;;;;;;3.85;2.67;;;10.20;99.90;;;;;;4973519;28;20034;-79
2022/04/21 06:01:45;;;;;;;0.47;0.47;;;10.40;99.90;;;;;;4989543;28;20019;-77
2022/04/21 06:04:12;;;;;;;0.50;0.50;;;10.60;99.90;;;;;;4993855;28;20062;-85
2022/04/21 06:06:39;;;;;;;2.78;1.55;;;10.80;99.90;;;;;;4990247;28;20034;-78
2022/04/21 06:09:18;;;;;;;2.95;1.30;;;11.00;99.90;;;;;;4975053;28;20026;-79
2022/04/21 06:11:49;;;;;;;1.88;0.95;;;11.10;99.90;;;;;;4992464;28;20026;-78
2022/04/21 06:14:18;;;;;;;2.35;1.52;;;11.30;99.90;;;;;;4992643;28;20037;-85
2022/04/21 06:17:06;;;;;;;1.40;1.35;;;11.50;99.90;;;;;;4992857;28;20030;-78
2022/04/21 06:19:43;;;;;;;0.55;0.55;;;11.50;99.90;;;;;;4997401;28;20023;-78
2022/04/21 06:22:20;;;;;;;0.45;0.45;;;11.60;99.90;;;;;;4990539;28;20046;-79
2022/04/21 06:24:55;;;;;;;0.65;0.65;;;11.80;99.90;;;;;;4972136;28;20106;-84
2022/04/21 06:27:26;;;;;;;1.35;0.95;;;11.90;99.90;;;;;;4980464;28;20893;-83
2022/04/21 06:29:55;;;;;;;1.27;1.00;;;11.90;99.90;;;;;;4988157;28;20062;-78
2022/04/21 06:32:26;;;;;;;0.68;0.68;;;11.90;99.90;;;;;;4989504;28;20464;-84
2022/04/21 06:35:06;;;;;;;;;;;;;;;;;;;;;
2022/04/21 06:37:48;;;;;;;;;;;;;;;;;;;;;
2022/04/21 06:40:14;;;;;;;3.13;0.90;;;12.00;99.90;;;;;;4992248;28;20039;-84
2022/04/21 06:42:53;;;;;;;;;;;;;;;;;;;;;
2022/04/21 06:48:05;;;;;;;1.55;1.23;;;12.50;99.90;;;;;;4989539;28;20049;-79
2022/04/21 06:50:36;;;;;;;1.02;0.60;;;12.60;99.90;;;;;;4995265;28;20497;-83
2022/04/21 06:53:05;;;;;;;1.20;1.17;;;12.80;99.90;;;;;;5003567;28;20033;-84
2022/04/21 06:55:33;;;;;;;5.07;1.42;;;12.70;99.90;;;;;;4995857;28;20509;-84
2022/04/21 06:58:00;;;;;;;2.58;1.08;;;12.70;99.90;;;;;;5002187;28;20069;-84
2022/04/21 07:00:27;;;;;;;2.58;1.65;;;12.80;99.90;;;;;;4984438;28;20061;-79
2022/04/21 07:02:55;;;;;;;2.72;1.80;;;12.80;99.90;;;;;;4999118;28;20017;-78
2022/04/21 07:05:22;;;;;;;0.80;0.80;;;12.70;99.90;;;;;;4986687;28;20029;-82
2022/04/21 07:07:50;;;;;;;2.38;1.05;;;12.70;99.90;;;;;;5005583;28;20041;-81
2022/04/21 07:10:22;;;;;;;1.73;0.77;;;12.70;99.90;;;;;;4991937;28;20033;-80
2022/04/21 07:12:48;;;;;;;1.95;0.82;;;12.70;99.90;;;;;;4991871;28;20038;-81
2022/04/21 07:15:15;;;;;;;1.48;1.38;;;12.80;99.90;;;;;;4989730;28;20080;-81
2022/04/21 07:17:42;;;;;;;0.40;0.28;;;12.80;99.90;;;;;;4954389;28;20494;-81
2022/04/21 07:20:10;;;;;;;2.03;1.08;;;12.90;99.90;;;;;;4969624;28;20138;-80
2022/04/21 07:22:36;;;;;;;23.00;3.78;;;13.00;99.90;;;;;;4955331;28;20410;-81
2022/04/21 07:25:06;;;;;;;3.00;1.80;;;13.10;99.90;;;;;;4972851;28;20030;-80
2022/04/21 07:27:33;;;;;;;1.27;1.02;;;13.40;99.90;;;;;;4974345;28;20030;-80
2022/04/21 07:30:00;;;;;;;0.88;0.80;;;13.60;99.90;;;;;;4958182;28;20023;-84
2022/04/21 07:32:25;;;;;;;3.22;1.45;;;13.90;99.90;;;;;;4982165;28;20122;-84
2022/04/21 07:34:51;;;;;;;1.98;0.93;;;14.10;99.90;;;;;;4987111;28;20117;-79
2022/04/21 07:37:18;;;;;;;4.15;1.88;;;14.30;99.90;;;;;;4977296;28;20030;-79
2022/04/21 07:39:44;;;;;;;2.70;1.33;;;14.50;99.90;;;;;;4988944;28;20018;-83
2022/04/21 07:42:11;;;;;;;3.72;1.48;;;14.70;99.90;;;;;;4993310;28;20046;-78
2022/04/21 07:44:37;;;;;;;2.22;1.08;;;14.80;99.90;;;;;;4987080;28;20050;-83
2022/04/21 07:47:07;;;;;;;2.08;1.25;;;14.90;99.90;;;;;;4982127;28;20065;-78
2022/04/21 07:49:46;;;;;;;16.85;1.98;;;15.00;99.90;;;;;;4977605;28;20059;-79
2022/04/21 07:55:33;;;;;;;3.30;1.30;;;15.70;99.90;;;;;;4933716;29;20384;-83
2022/04/21 07:57:59;;;;;;;3.40;1.63;;;16.00;99.90;;;;;;4943635;29;20028;-84
2022/04/21 08:00:25;;;;;;;2.88;1.55;;;16.50;99.90;;;;;;4935780;29;20075;-83
2022/04/21 08:03:02;;;;;;;3.20;1.63;;;18.30;99.90;;;;;;4952925;29;20066;-79
2022/04/21 08:05:28;;;;;;;4.22;2.25;;;20.50;99.90;;;;;;4947966;29;20075;-82
2022/04/21 08:07:54;;;;;;;2.90;1.70;;;21.10;99.90;;;;;;4924505;29;20078;-83
2022/04/21 08:10:21;;;;;;;5.32;2.13;;;22.40;99.90;;;;;;4935430;29;20583;-80
2022/04/21 08:12:54;;;;;;;4.78;2.33;;;23.90;98.70;;;;;;4936129;29;20479;-78
2022/04/21 08:15:29;;;;;;;5.00;2.97;;;24.20;97.50;;;;;;4935933;29;20099;-83
2022/04/21 08:17:56;;;;;;;5.63;3.25;;;24.80;96.90;;;;;;4936511;29;20044;-79
2022/04/21 08:20:24;;;;;;;3.15;1.83;;;23.20;97.10;;;;;;4933954;29;20063;-78
2022/04/21 08:22:51;;;;;;;7.60;2.28;;;21.20;99.30;;;;;;4935339;29;20044;-79
2022/04/21 08:33:32;;;;;;;6.53;1.38;;;17.50;99.90;;;;;;4995310;28;20040;-82
2022/04/21 08:35:59;;;;;;;7.20;1.52;;;16.90;99.90;;;;;;4984699;28;20625;-78
2022/04/21 08:38:29;;;;;;;1.40;1.05;;;16.40;99.90;;;;;;4983327;28;20081;-82
2022/04/21 08:40:59;;;;;;;1.33;0.85;;;16.10;99.90;;;;;;4959404;28;20083;-82
2022/04/21 08:43:27;;;;;;;5.10;2.13;;;16.00;99.90;;;;;;4947590;28;20094;-83
2022/04/21 08:45:55;;;;;;;6.03;1.75;;;15.90;99.90;;;;;;4930404;29;20072;-79
2022/04/21 08:48:25;;;;;;;3.33;1.30;;;15.80;99.90;;;;;;4940677;29;20462;-82
2022/04/21 08:50:51;;;;;;;1.75;0.82;;;15.90;99.90;;;;;;4934767;29;20032;-78
2022/04/21 08:53:24;;;;;;;2.45;1.20;;;16.00;99.90;;;;;;4921065;29;20023;-79
2022/04/21 08:55:51;;;;;;;4.80;2.38;;;16.00;99.90;;;;;;4927824;29;20423;-83
2022/04/21 08:58:18;;;;;;;6.18;1.73;;;16.20;99.90;;;;;;4959845;28;20044;-80
2022/04/21 09:00:44;;;;;;;1.50;1.10;;;16.30;99.90;;;;;;4935250;29;20023;-83
2022/04/21 09:03:13;;;;;;;2.15;1.05;;;16.50;99.90;;;;;;4934833;29;20373;-80
2022/04/21 09:05:41;;;;;;;2.25;1.20;;;16.60;99.90;;;;;;4936302;29;20032;-84
2022/04/21 09:08:21;;;;;;;1.35;1.25;;;16.60;99.90;;;;;;4948320;29;20035;-80
2022/04/21 09:11:01;;;;;;;5.22;1.15;;;16.60;99.90;;;;;;4936082;29;20201;-84
2022/04/21 09:13:36;;;;;;;2.90;1.85;;;16.50;99.90;;;;;;4936842;29;20440;-79
2022/04/21 09:16:07;;;;;;;5.57;1.70;;;16.70;99.90;;;;;;4936891;28;20042;-84
2022/04/21 09:18:41;;;;;;;1.27;0.80;;;16.80;99.90;;;;;;4952872;29;20519;-84
2022/04/21 09:21:14;;;;;;;5.53;2.03;;;16.90;99.90;;;;;;4947353;28;20051;-83
2022/04/21 09:23:44;;;;;;;1.67;1.58;;;17.10;99.90;;;;;;4942018;28;20020;-81
2022/04/21 09:26:17;;;;;;;1.02;0.93;;;17.40;99.90;;;;;;4949897;29;20055;-80
2022/04/21 09:28:54;;;;;;;1.88;1.38;;;17.80;99.90;;;;;;4950011;29;20028;-85
2022/04/21 09:31:19;;;;;;;2.13;1.25;;;18.30;99.90;;;;;;4949930;28;20083;-83
2022/04/21 09:33:46;;;;;;;2.38;0.82;;;18.70;99.90;;;;;;4935397;29;20052;-81
2022/04/21 09:36:13;;;;;;;1.92;1.27;;;19.00;99.90;;;;;;4933909;29;20035;-85
2022/04/21 09:38:40;;;;;;;5.47;1.50;;;19.20;99.90;;;;;;4937295;29;20034;-84
2022/04/21 09:41:12;;;;;;;2.45;1.55;;;19.60;99.90;;;;;;4962506;28;20117;-79
2022/04/21 09:43:41;;;;;;;6.75;1.75;;;20.00;99.90;;;;;;4964406;28;20387;-84
2022/04/21 09:46:13;;;;;;;4.85;1.35;;;20.20;99.90;;;;;;4945490;28;20046;-79
2022/04/21 09:48:40;;;;;;;2.25;1.38;;;20.80;99.90;;;;;;4973134;28;20035;-86
2022/04/21 09:51:14;;;;;;;2.63;1.58;;;22.20;99.70;;;;;;4972457;28;20047;-81
2022/04/21 09:54:00;;;;;;;6.22;1.95;;;23.50;99.00;;;;;;4971281;28;20022;-81
2022/04/21 09:56:40;;;;;;;2.47;1.60;;;23.70;97.30;;;;;;4969133;28;20026;-85
2022/04/21 09:59:12;;;;;;;3.90;1.88;;;24.00;96.60;;;;;;4971640;28;20031;-80
2022/04/21 10:01:42;;;;;;;6.20;2.05;;;24.80;95.60;;;;;;4974787;28;20032;-80
2022/04/21 10:04:11;;;;;;;2.30;1.25;;;24.10;95.90;;;;;;4978596;28;20030;-81
2022/04/21 10:06:42;;;;;;;3.20;2.15;;;23.20;96.10;;;;;;4966849;28;20034;-81
2022/04/21 10:09:11;;;;;;;2.60;1.63;;;22.80;96.20;;;;;;4984607;28;20094;-84
2022/04/21 10:11:42;;;;;;;5.80;2.25;;;22.20;97.50;;;;;;4985300;28;20500;-80
2022/04/21 10:14:12;;;;;;;3.92;1.73;;;22.20;99.20;;;;;;4979238;28;20061;-80
2022/04/21 10:16:42;;;;;;;3.50;1.40;;;22.40;97.30;;;;;;4979503;28;20043;-80
2022/04/21 10:19:12;;;;;;;2.50;1.40;;;22.10;97.50;;;;;;4973342;28;20498;-80
2022/04/21 10:21:52;;;;;;;4.20;1.67;;;21.80;97.20;;;;;;4960362;28;20073;-80
2022/04/21 10:24:26;;;;;;;1.90;1.33;;;21.30;97.90;;;;;;4973847;28;20455;-80
2022/04/21 10:26:53;;;;;;;13.13;1.35;;;21.10;97.90;;;;;;4984686;28;20030;-80
2022/04/21 10:29:22;;;;;;;5.97;1.42;;;21.10;98.00;;;;;;4973397;28;20102;-80
2022/04/21 10:32:03;;;;;;;1.65;1.55;;;21.00;99.30;;;;;;4972151;28;20034;-81
2022/04/21 10:34:38;;;;;;;2.13;1.42;;;21.60;99.90;;;;;;4973714;28;20482;-80
2022/04/21 10:37:10;;;;;;;4.10;1.02;;;21.90;99.30;;;;;;4970165;28;20031;-81
2022/04/21 10:39:37;;;;;;;16.10;1.52;;;22.50;96.30;;;;;;4980501;28;20023;-80
2022/04/21 10:42:17;;;;;;;2.20;1.38;;;22.70;97.90;;;;;;4977561;28;20062;-80
2022/04/21 10:44:48;;;;;;;2.75;1.60;;;22.80;98.60;;;;;;4978536;28;20026;-82
2022/04/21 10:47:36;;;;;;;5.28;1.55;;;22.70;96.60;;;;;;4981868;28;20034;-80
2022/04/21 10:50:11;;;;;;;2.08;1.50;;;22.40;97.60;;;;;;4976587;28;20037;-81
2022/04/21 10:57:50;;;;;;;2.78;1.13;;;22.60;97.20;;;;;;4976581;28;20422;-80
2022/04/21 11:00:26;;;;;;;4.95;1.38;;;22.50;96.30;;;;;;4960738;28;20027;-80
2022/04/21 11:03:06;;;;;;;0.75;0.68;;;22.40;98.00;;;;;;4980142;28;20055;-83
2022/04/21 11:05:38;;;;;;;8.88;1.45;;;22.20;97.70;;;;;;4990135;28;20060;-81
2022/04/21 11:08:11;;;;;;;1.88;1.05;;;22.40;96.30;;;;;;4989264;28;20031;-81
2022/04/21 11:10:37;;;;;;;2.63;1.40;;;22.90;95.40;;;;;;4988231;28;20434;-81
2022/04/21 11:13:06;;;;;;;0.85;0.77;;;23.20;95.40;;;;;;4978181;28;20119;-84
2022/04/21 11:15:36;;;;;;;1.10;0.90;;;23.50;95.20;;;;;;4985016;28;20074;-83
2022/04/21 11:18:09;;;;;;;2.45;1.33;;;23.70;94.80;;;;;;4975095;28;20037;-81
2022/04/21 11:20:37;;;;;;;3.00;1.15;;;23.50;95.20;;;;;;4974730;28;20034;-81
2022/04/21 11:23:04;;;;;;;1.83;1.13;;;23.50;95.00;;;;;;4976656;28;20359;-84
2022/04/21 11:25:33;;;;;;;1.42;0.80;;;23.40;95.70;;;;;;4984228;28;20019;-81
2022/04/21 11:27:59;;;;;;;4.15;2.13;;;23.50;94.60;;;;;;4994943;28;20485;-81
2022/04/21 11:30:25;;;;;;;1.85;0.90;;;23.30;95.20;;;;;;4996091;28;20052;-81
2022/04/21 11:32:52;;;;;;;3.33;1.65;;;23.20;94.80;;;;;;4995153;28;20034;-84
2022/04/21 11:35:22;;;;;;;2.58;1.50;;;23.00;95.20;;;;;;4991516;28;20158;-81
2022/04/21 11:37:52;;;;;;;3.50;1.50;;;22.90;96.90;;;;;;4985432;28;20034;-81
2022/04/21 11:40:28;;;;;;;1.70;1.40;;;22.80;94.90;;;;;;4976802;28;20114;-84
2022/04/21 11:42:56;;;;;;;19.70;1.65;;;22.50;95.90;;;;;;4976908;28;20105;-81
2022/04/21 11:45:28;;;;;;;0.93;0.80;;;22.50;95.50;;;;;;4973308;28;20023;-82
2022/04/21 11:47:55;;;;;;;3.07;1.40;;;22.30;97.30;;;;;;4976123;28;20558;-81
2022/04/21 11:50:25;;;;;;;2.00;1.15;;;21.90;96.30;;;;;;4981190;28;20761;-84
2022/04/21 11:52:55;;;;;;;2.60;1.10;;;21.90;95.90;;;;;;4982466;28;20038;-80
2022/04/21 11:55:25;;;;;;;0.93;0.57;;;22.20;97.40;;;;;;4943791;29;20020;-81
2022/04/21 11:57:51;;;;;;;2.45;0.90;;;22.70;95.30;;;;;;4961230;28;20125;-84
2022/04/21 12:06:28;;;;;;;1.50;0.95;;;23.00;95.90;;;;;;4957216;28;20034;-84
2022/04/21 12:08:44;;;;;;;1.85;0.90;;;22.50;96.20;;;;;;4956491;29;20042;-84
2022/04/21 12:11:12;;;;;;;2.38;0.70;;;22.80;94.10;;;;;;4962703;28;20026;-80
2022/04/21 12:13:38;;;;;;;0.63;0.63;;;23.20;94.50;;;;;;4978265;28;20058;-84
2022/04/21 12:16:25;;;;;;;1.27;0.80;;;23.40;93.20;;;;;;4982119;28;20030;-83
2022/04/21 12:18:51;;;;;;;1.08;0.82;;;23.60;92.80;;;;;;5000199;28;20405;-84
2022/04/21 12:21:34;;;;;;;2.40;1.17;;;23.50;93.20;;;;;;4975129;28;20038;-80
2022/04/21 12:24:17;;;;;;;;;;;23.30;93.10;;;;;;4973646;28;20098;-80
2022/04/21 12:26:51;;;;;;;0.88;0.88;;;22.90;93.60;;;;;;4991930;28;20256;-80
2022/04/21 12:29:18;;;;;;;0.93;0.82;;;22.70;93.10;;;;;;4994390;28;20041;-84
2022/04/21 12:31:54;;;;;;;0.80;0.73;;;22.90;94.60;;;;;;4977489;28;20022;-81
2022/04/21 12:34:20;;;;;;;1.17;0.77;;;23.00;94.30;;;;;;4969903;28;20082;-84
2022/04/21 12:36:58;;;;;;;0.68;0.68;;;23.10;93.80;;;;;;4973900;28;20034;-83
2022/04/21 12:39:25;;;;;;;2.83;0.88;;;23.10;93.30;;;;;;4958662;29;20062;-79
2022/04/21 12:41:52;;;;;;;16.75;5.60;;;22.70;93.30;;;;;;4956667;29;20502;-83
2022/04/21 12:44:23;;;;;;;1.42;0.77;;;22.60;92.80;;;;;;4971737;28;20047;-79
2022/04/21 12:47:15;;;;;;;1.02;0.60;;;22.70;92.70;;;;;;4969831;28;20462;-83
2022/04/21 12:50:00;;;;;;;1.23;0.93;;;22.90;94.20;;;;;;4956719;28;20472;-82
2022/04/21 12:52:27;;;;;;;1.38;1.13;;;23.20;92.00;;;;;;4972562;28;20074;-82
2022/04/21 12:54:53;;;;;;;5.13;1.10;;;23.20;93.20;;;;;;4974305;28;20039;-83
2022/04/21 12:57:18;;;;;;;0.75;0.75;;;23.00;93.40;;;;;;4978310;28;20041;-82
2022/04/21 12:59:47;;;;;;;0.60;0.40;;;23.20;94.40;;;;;;4973768;28;20023;-84
2022/04/21 13:02:13;;;;;;;0.50;0.35;;;23.60;92.70;;;;;;4974181;28;20049;-82
2022/04/21 13:04:41;;;;;;;1.95;0.95;;;24.00;93.10;;;;;;4970457;28;20106;-81
2022/04/21 13:07:09;;;;;;;0.30;0.30;;;24.00;93.70;;;;;;4960298;28;20023;-82
2022/04/21 13:09:35;;;;;;;1.63;0.70;;;23.90;92.00;;;;;;4973455;28;20055;-83
2022/04/21 13:12:01;;;;;;;1.33;0.60;;;23.70;91.40;;;;;;4973287;28;20027;-81
2022/04/21 13:14:26;;;;;;;2.65;0.82;;;23.00;92.30;;;;;;4956299;28;20130;-83
2022/04/21 13:16:53;;;;;;;0.77;0.50;;;23.20;92.70;;;;;;4956815;28;20022;-81
2022/04/21 13:19:19;;;;;;;1.00;0.75;;;23.10;92.80;;;;;;4973063;28;20146;-83
2022/04/21 13:21:55;;;;;;;1.60;1.00;;;23.50;92.10;;;;;;4972522;28;20110;-80
2022/04/21 13:24:39;;;;;;;0.55;0.45;;;23.60;92.70;;;;;;4989050;28;20466;-83
2022/04/21 13:27:05;;;;;;;1.25;1.00;;;23.90;92.50;;;;;;4993162;28;20084;-82
2022/04/21 13:29:33;;;;;;;1.92;0.93;;;23.40;91.60;;;;;;4988160;28;20035;-83
2022/04/21 13:34:44;;;;;;;1.08;0.50;;;23.50;93.50;;;;;;4973812;28;20038;-84
2022/04/21 13:37:11;;;;;;;2.30;1.23;;;23.80;92.20;;;;;;4973971;28;20031;-84
2022/04/21 13:39:41;;;;;;;3.88;1.42;;;23.20;95.40;;;;;;4973872;28;20054;-84
2022/04/21 13:42:08;;;;;;;6.57;2.45;;;22.50;96.20;;;;;;4963581;28;20048;-85
2022/04/21 13:44:35;;;;;;;5.00;1.25;;;21.80;96.80;;;;;;4949808;29;20403;-81
2022/04/21 13:47:00;;;;;;;7.57;1.98;;;22.00;97.50;;;;;;4935234;29;20019;-84
2022/04/21 13:49:27;;;;;;;1.33;0.90;;;22.30;96.50;;;;;;4935208;29;20036;-82
2022/04/21 13:51:53;;;;;;;1.63;1.20;;;22.80;96.20;;;;;;4935542;29;20498;-83
2022/04/21 13:54:19;;;;;;;1.88;0.95;;;23.20;95.90;;;;;;4933377;29;20027;-80
2022/04/21 13:56:45;;;;;;;5.50;1.48;;;23.50;94.90;;;;;;4931649;29;20032;-85